Connaught, Canada
Current Conditions -  °F | °C
As of 12:38 AM on Saturday 20 Dec 2014 (Local Time) from CYTS Reporting Station
Ice Pellets Ice Pellets  
Wind Chill: -6°   Ceiling: Unl
Heat Index: -6°   Visibility: 0.5mi
Dew Point: -9°   Wind: 2mph
Humidity: 84%   Direction: 160°SSE
Pressure: 30.27"   Gusts: NA
Location:  48.62°N, 80.93°W
Report Text: CYTS 200538Z 16002KT 1/2SM R03/3000FT/N IC SKC M21/M23 A3027 RMK IC6 SLP282
Loading
Personal Weather Stations






























Interactive Weather Map New forecast layout! Learn more

10-Day Weather Forecast

Advertisements
Track Severe Weather on mobile